createdAt,value
2018-03-17T00:01:05.952Z,100267.53
2018-03-17T00:03:32.130Z,100267.93
2018-03-17T00:05:58.313Z,100272.20
2018-03-17T00:08:24.520Z,100268.65
2018-03-17T00:10:50.669Z,100266.86
2018-03-17T00:13:16.853Z,100269.82
2018-03-17T00:15:43.056Z,100261.97
2018-03-17T00:18:09.275Z,100265.44
2018-03-17T00:20:35.427Z,100267.59
2018-03-17T00:23:01.665Z,100266.25
2018-03-17T00:25:27.899Z,100267.95
2018-03-17T00:27:54.059Z,100275.70
2018-03-17T00:30:20.200Z,100275.13
2018-03-17T00:32:46.405Z,100268.98
2018-03-17T00:35:12.600Z,100265.95
2018-03-17T00:37:38.811Z,100263.27
2018-03-17T00:40:05.049Z,100259.81
2018-03-17T00:42:31.214Z,100264.54
2018-03-17T00:44:57.460Z,100254.45
2018-03-17T00:47:23.630Z,100255.26
2018-03-17T00:49:50.158Z,100251.34
2018-03-17T00:52:16.349Z,100256.53
2018-03-17T00:54:42.571Z,100254.31
2018-03-17T00:57:08.724Z,100252.53
2018-03-17T00:59:34.921Z,100260.77
2018-03-17T01:02:01.157Z,100266.78
2018-03-17T01:04:27.344Z,100264.88
2018-03-17T01:06:53.563Z,100271.34
2018-03-17T01:09:19.766Z,100273.47
2018-03-17T01:11:45.899Z,100272.18
2018-03-17T01:14:12.085Z,100280.73
2018-03-17T01:16:38.334Z,100272.41
2018-03-17T01:19:04.517Z,100272.77
2018-03-17T01:21:30.680Z,100272.71
2018-03-17T01:23:56.871Z,100274.90
2018-03-17T01:26:23.099Z,100271.91
2018-03-17T01:28:49.245Z,100275.33
2018-03-17T01:31:15.393Z,100277.55
2018-03-17T01:33:41.533Z,100278.30
2018-03-17T01:36:07.726Z,100276.09
2018-03-17T01:38:33.986Z,100279.09
2018-03-17T01:41:00.145Z,100283.77
2018-03-17T01:43:26.317Z,100289.41
2018-03-17T01:45:52.509Z,100282.88
2018-03-17T01:48:18.652Z,100286.32
2018-03-17T01:50:44.826Z,100282.33
2018-03-17T01:53:11.062Z,100284.46
2018-03-17T01:55:37.303Z,100282.70
2018-03-17T01:58:03.465Z,100294.81
2018-03-17T02:00:29.623Z,100283.88
2018-03-17T02:02:55.749Z,100282.94
2018-03-17T02:05:22.010Z,100288.47
2018-03-17T02:07:48.223Z,100286.28
2018-03-17T02:10:14.450Z,100286.20
2018-03-17T02:12:40.612Z,100285.31
2018-03-17T02:15:06.805Z,100287.46
2018-03-17T02:17:32.930Z,100293.09
2018-03-17T02:19:59.053Z,100302.14
2018-03-17T02:22:25.279Z,100300.33
2018-03-17T02:24:52.784Z,100291.61
2018-03-17T02:27:18.911Z,100285.14
2018-03-17T02:29:45.107Z,100294.15
2018-03-17T02:32:11.284Z,100285.11
2018-03-17T02:34:37.532Z,100281.22
2018-03-17T02:37:03.783Z,100282.47
2018-03-17T02:39:29.909Z,100268.92
2018-03-17T02:41:56.043Z,100264.23
2018-03-17T02:44:23.242Z,100265.92
2018-03-17T02:46:49.429Z,100269.43
2018-03-17T02:49:15.606Z,100273.27
2018-03-17T02:51:41.800Z,100272.83
2018-03-17T02:54:08.002Z,100273.16
2018-03-17T02:56:34.236Z,100275.67
2018-03-17T02:59:00.451Z,100275.29
2018-03-17T03:01:26.616Z,100273.27
2018-03-17T03:03:52.802Z,100265.38
2018-03-17T03:06:18.931Z,100265.30
2018-03-17T03:08:45.163Z,100265.77
2018-03-17T03:11:11.409Z,100269.53
2018-03-17T03:13:37.605Z,100265.12
2018-03-17T03:16:03.808Z,100265.27
2018-03-17T03:18:29.953Z,100257.00
2018-03-17T03:20:56.112Z,100254.88
2018-03-17T03:23:23.247Z,100257.77
2018-03-17T03:25:49.464Z,100258.50
2018-03-17T03:28:16.338Z,100252.29
2018-03-17T03:30:42.455Z,100252.77
2018-03-17T03:33:08.589Z,100244.95
2018-03-17T03:35:34.800Z,100245.74
2018-03-17T03:38:01.082Z,100244.47
2018-03-17T03:40:27.346Z,100247.55
2018-03-17T03:42:53.552Z,100243.23
2018-03-17T03:45:19.752Z,100238.41
2018-03-17T03:47:45.920Z,100240.13
2018-03-17T03:50:12.082Z,100238.39
2018-03-17T03:52:38.249Z,100238.73
2018-03-17T03:55:04.517Z,100241.70
2018-03-17T03:57:30.741Z,100242.47
2018-03-17T03:59:57.026Z,100239.48
2018-03-17T04:02:23.188Z,100231.11
2018-03-17T04:04:49.338Z,100227.16
2018-03-17T04:07:15.594Z,100227.13
2018-03-17T04:09:41.795Z,100234.91
2018-03-17T04:12:08.009Z,100225.83
2018-03-17T04:14:34.143Z,100231.01
2018-03-17T04:17:00.380Z,100229.30
2018-03-17T04:19:26.602Z,100219.85
2018-03-17T04:21:53.890Z,100219.43
2018-03-17T04:24:20.042Z,100219.25
2018-03-17T04:26:46.281Z,100219.20
2018-03-17T04:29:12.492Z,100219.55
2018-03-17T04:31:38.658Z,100214.31
2018-03-17T04:34:04.852Z,100212.97
2018-03-17T04:36:31.073Z,100210.77
2018-03-17T04:38:57.235Z,100213.28
2018-03-17T04:41:23.581Z,100220.14
2018-03-17T04:43:49.805Z,100221.90
2018-03-17T04:46:16.015Z,100217.69
2018-03-17T04:48:42.213Z,100223.19
2018-03-17T04:51:08.422Z,100219.61
2018-03-17T04:53:34.533Z,100222.67
2018-03-17T04:56:00.698Z,100225.29
2018-03-17T04:58:26.955Z,100228.60
2018-03-17T05:00:54.658Z,100223.85
2018-03-17T05:03:20.798Z,100234.55
2018-03-17T05:05:46.986Z,100237.30
2018-03-17T05:08:13.190Z,100240.11
2018-03-17T05:10:39.316Z,100243.02
2018-03-17T05:13:05.477Z,100240.44
2018-03-17T05:15:31.690Z,100247.89
2018-03-17T05:17:57.911Z,100240.45
2018-03-17T05:20:24.059Z,100233.05
2018-03-17T05:22:50.282Z,100239.06
2018-03-17T05:25:16.475Z,100238.20
2018-03-17T05:27:42.655Z,100237.22
2018-03-17T05:30:08.807Z,100246.36
2018-03-17T05:32:36.051Z,100243.21
2018-03-17T05:35:02.244Z,100240.63
2018-03-17T05:37:28.461Z,100243.67
2018-03-17T05:39:54.644Z,100244.89
2018-03-17T05:42:20.851Z,100246.39
2018-03-17T05:44:47.179Z,100246.31
2018-03-17T05:47:13.406Z,100243.76
2018-03-17T05:49:39.568Z,100245.48
2018-03-17T05:52:05.778Z,100246.67
2018-03-17T05:54:31.960Z,100240.47
2018-03-17T05:56:58.173Z,100244.77
2018-03-17T05:59:24.336Z,100242.38
2018-03-17T06:01:50.541Z,100249.05
2018-03-17T06:04:16.843Z,100240.28
2018-03-17T06:06:42.947Z,100244.95
2018-03-17T06:09:09.153Z,100244.94
2018-03-17T06:11:35.381Z,100247.44
2018-03-17T06:14:01.651Z,100249.11
2018-03-17T06:16:27.789Z,100246.17
2018-03-17T06:18:53.987Z,100244.44
2018-03-17T06:21:20.177Z,100250.03
2018-03-17T06:23:46.376Z,100251.36
2018-03-17T06:26:12.552Z,100249.48
2018-03-17T06:28:38.783Z,100243.44
2018-03-17T06:31:04.938Z,100246.52
2018-03-17T06:33:31.125Z,100248.77
2018-03-17T06:35:57.945Z,100241.11
2018-03-17T06:38:24.116Z,100250.95
2018-03-17T06:40:50.262Z,100242.78
2018-03-17T06:43:16.419Z,100246.25
2018-03-17T06:45:43.549Z,100242.18
2018-03-17T06:48:09.802Z,100243.41
2018-03-17T06:50:35.994Z,100247.70
2018-03-17T06:53:02.144Z,100242.02
2018-03-17T06:55:28.344Z,100248.80
2018-03-17T06:57:54.650Z,100243.50
2018-03-17T07:00:20.882Z,100242.73
2018-03-17T07:02:47.018Z,100249.49
2018-03-17T07:05:13.267Z,100239.05
2018-03-17T07:07:39.488Z,100240.36
2018-03-17T07:10:05.667Z,100232.50
2018-03-17T07:12:31.920Z,100241.91
2018-03-17T07:14:58.094Z,100241.97
2018-03-17T07:17:24.332Z,100239.31
2018-03-17T07:19:50.513Z,100244.52
2018-03-17T07:22:16.722Z,100236.19
2018-03-17T07:24:42.879Z,100239.27
2018-03-17T07:27:09.109Z,100242.34
2018-03-17T07:29:35.307Z,100248.43
2018-03-17T07:32:01.549Z,100231.31
2018-03-17T07:34:30.357Z,100243.19
2018-03-17T07:36:56.521Z,100238.23
2018-03-17T07:39:22.762Z,100242.77
2018-03-17T07:41:49.037Z,100247.41
2018-03-17T07:44:15.299Z,100247.33
2018-03-17T07:46:41.508Z,100244.84
2018-03-17T07:49:07.674Z,100241.36
2018-03-17T07:51:33.988Z,100244.39
2018-03-17T07:54:00.122Z,100246.84
2018-03-17T07:56:26.221Z,100245.13
2018-03-17T07:58:52.416Z,100254.55
2018-03-17T08:01:18.536Z,100259.23
2018-03-17T08:03:44.695Z,100263.59
2018-03-17T08:06:10.913Z,100261.57
2018-03-17T08:08:37.242Z,100254.80
2018-03-17T08:11:03.400Z,100254.91
2018-03-17T08:13:29.559Z,100258.58
2018-03-17T08:15:55.682Z,100249.75
2018-03-17T08:18:21.907Z,100250.86
2018-03-17T08:20:48.009Z,100252.83
2018-03-17T08:23:14.148Z,100260.59
2018-03-17T08:25:40.339Z,100251.86
2018-03-17T08:28:06.607Z,100255.38
2018-03-17T08:30:32.725Z,100252.26
2018-03-17T08:32:58.904Z,100248.28
2018-03-17T08:35:25.068Z,100259.02
2018-03-17T08:37:51.257Z,100264.08
2018-03-17T08:40:17.487Z,100259.08
2018-03-17T08:42:43.610Z,100262.12
2018-03-17T08:45:09.715Z,100252.50
2018-03-17T08:47:35.995Z,100257.94
2018-03-17T08:50:02.349Z,100259.45
2018-03-17T08:52:29.083Z,100255.65
2018-03-17T08:54:55.333Z,100250.91
2018-03-17T08:57:21.519Z,100249.12
2018-03-17T08:59:48.021Z,100253.05
2018-03-17T09:02:14.342Z,100250.34
2018-03-17T09:04:40.667Z,100273.58
2018-03-17T09:07:06.906Z,100265.18
2018-03-17T09:09:33.160Z,100265.13
2018-03-17T09:12:00.484Z,100259.16
2018-03-17T09:14:26.850Z,100257.39
2018-03-17T09:16:53.063Z,100247.95
2018-03-17T09:19:19.273Z,100256.14
2018-03-17T09:24:49.858Z,100264.20
2018-03-17T09:27:16.967Z,100261.38
2018-03-17T09:29:43.544Z,100263.89
2018-03-17T09:32:09.742Z,100267.11
2018-03-17T09:34:35.949Z,100254.72
2018-03-17T09:37:02.294Z,100253.30
2018-03-17T09:39:28.484Z,100256.16
2018-03-17T09:41:54.750Z,100260.46
2018-03-17T09:44:21.537Z,100251.30
2018-03-17T09:46:48.153Z,100255.52
2018-03-17T09:49:24.508Z,100259.44
2018-03-17T09:51:51.541Z,100250.41
2018-03-17T09:54:17.977Z,100250.52
2018-03-17T09:56:45.017Z,100253.55
2018-03-17T09:59:11.832Z,100254.31
2018-03-17T10:01:39.443Z,100256.44
2018-03-17T10:04:25.509Z,100246.66
2018-03-17T10:06:51.981Z,100250.80
2018-03-17T10:09:19.420Z,100249.50
2018-03-17T10:14:49.532Z,100250.70
2018-03-17T10:17:15.972Z,100251.51
2018-03-17T10:22:39.863Z,100243.36
2018-03-17T10:28:08.982Z,100246.61
2018-03-17T10:30:35.507Z,100245.64
2018-03-17T10:33:01.769Z,100239.97
2018-03-17T10:35:29.097Z,100229.60
2018-03-17T10:37:56.402Z,100233.94
2018-03-17T10:40:23.750Z,100232.80
2018-03-17T10:42:50.513Z,100227.23
2018-03-17T10:45:16.751Z,100245.36
2018-03-17T10:50:46.074Z,100240.67
2018-03-17T10:53:13.837Z,100229.92
2018-03-17T10:58:45.137Z,100229.91
2018-03-17T11:01:17.348Z,100224.58
2018-03-17T11:09:49.902Z,100223.23
2018-03-17T11:12:17.056Z,100229.79
2018-03-17T11:14:43.264Z,100229.77
2018-03-17T11:17:10.708Z,100213.31
2018-03-17T11:22:41.068Z,100206.55
2018-03-17T11:25:07.273Z,100217.58
2018-03-17T11:27:54.461Z,100222.02
2018-03-17T11:33:23.934Z,100214.73
2018-03-17T11:35:50.698Z,100216.07
2018-03-17T11:38:16.987Z,100220.09
2018-03-17T11:40:43.245Z,100212.83
2018-03-17T11:43:10.400Z,100204.12
2018-03-17T11:48:43.584Z,100225.53
2018-03-17T11:51:10.008Z,100222.19
2018-03-17T12:11:56.375Z,100210.36
2018-03-17T12:14:22.631Z,100201.34
2018-03-17T12:16:48.733Z,100198.58
2018-03-17T12:19:14.890Z,100195.63
2018-03-17T12:21:41.133Z,100199.75
2018-03-17T12:24:07.284Z,100211.06
2018-03-17T12:26:33.412Z,100198.36
2018-03-17T12:28:59.581Z,100202.57
2018-03-17T12:31:25.770Z,100201.17
2018-03-17T12:33:51.877Z,100191.27
2018-03-17T12:36:18.009Z,100180.50
2018-03-17T12:38:44.176Z,100198.75
2018-03-17T12:41:10.455Z,100192.62
2018-03-17T12:43:36.641Z,100179.66
2018-03-17T12:46:02.916Z,100186.61
2018-03-17T12:48:29.083Z,100188.03
2018-03-17T12:50:55.231Z,100191.09
2018-03-17T12:53:21.367Z,100188.72
2018-03-17T12:55:47.522Z,100183.66
2018-03-17T12:58:13.695Z,100180.23
2018-03-17T13:00:39.849Z,100179.63
2018-03-17T13:03:05.945Z,100182.95
2018-03-17T13:05:32.103Z,100182.84
2018-03-17T13:07:59.233Z,100188.90
2018-03-17T13:10:25.341Z,100190.89
2018-03-17T13:12:51.479Z,100179.52
2018-03-17T13:15:17.814Z,100186.82
2018-03-17T13:17:43.949Z,100189.53
2018-03-17T13:20:10.159Z,100190.34
2018-03-17T13:22:48.426Z,100184.73
2018-03-17T13:25:14.627Z,100180.98
2018-03-17T13:27:53.157Z,100171.56
2018-03-17T13:30:19.335Z,100162.39
2018-03-17T13:32:55.564Z,100160.56
2018-03-17T13:35:21.692Z,100163.98
2018-03-17T13:37:47.791Z,100170.30
2018-03-17T13:40:25.994Z,100162.17
2018-03-17T13:42:52.101Z,100163.18
2018-03-17T13:45:18.240Z,100170.09
2018-03-17T13:47:44.397Z,100155.75
2018-03-17T13:50:10.595Z,100145.03
2018-03-17T13:52:36.736Z,100149.29
2018-03-17T13:55:04.601Z,100156.09
2018-03-17T14:24:56.850Z,100153.75
2018-03-17T15:01:14.736Z,100152.01
2018-03-17T15:37:12.907Z,100144.23
2018-03-17T15:54:53.783Z,100140.60
2018-03-17T15:57:34.836Z,100138.53
2018-03-17T16:00:01.155Z,100141.47
2018-03-17T16:08:34.204Z,100128.30
2018-03-17T16:13:58.306Z,100135.65
2018-03-17T16:25:32.784Z,100129.98
2018-03-17T16:31:15.706Z,100132.48
2018-03-17T16:36:44.310Z,100141.97
2018-03-17T16:39:10.561Z,100141.97
2018-03-17T16:41:36.704Z,100139.02
2018-03-17T16:44:02.946Z,100139.37
2018-03-17T16:46:29.200Z,100138.02
2018-03-17T16:48:55.405Z,100147.70
2018-03-17T16:51:21.559Z,100143.36
2018-03-17T16:53:47.690Z,100157.16
2018-03-17T16:56:13.871Z,100159.34
2018-03-17T16:58:40.038Z,100164.06
2018-03-17T17:01:06.405Z,100164.84
2018-03-17T17:03:32.637Z,100166.00
2018-03-17T17:05:59.195Z,100163.38
2018-03-17T17:08:25.404Z,100169.94
2018-03-17T17:10:51.627Z,100173.75
2018-03-17T17:13:17.856Z,100168.09
2018-03-17T17:15:44.050Z,100173.23
2018-03-17T17:18:10.283Z,100172.36
2018-03-17T17:20:36.565Z,100171.88
2018-03-17T17:23:02.805Z,100167.91
2018-03-17T17:25:29.080Z,100167.45
2018-03-17T17:27:55.757Z,100165.73
2018-03-17T17:30:23.699Z,100170.03
2018-03-17T17:32:49.933Z,100165.03
2018-03-17T17:35:17.053Z,100168.45
2018-03-17T17:37:43.272Z,100169.77
2018-03-17T17:40:09.482Z,100165.06
2018-03-17T17:42:35.745Z,100171.84
2018-03-17T17:45:01.925Z,100170.84
2018-03-17T17:47:28.094Z,100169.30
2018-03-17T17:49:54.310Z,100173.16
2018-03-17T17:52:20.547Z,100171.78
2018-03-17T17:54:46.754Z,100174.22
2018-03-17T17:57:13.019Z,100174.32
2018-03-17T17:59:39.494Z,100176.52
2018-03-17T18:02:05.665Z,100183.27
2018-03-17T18:04:31.899Z,100179.55
2018-03-17T18:06:58.098Z,100178.23
2018-03-17T18:09:24.470Z,100185.41
2018-03-17T18:11:50.679Z,100193.96
2018-03-17T18:14:16.882Z,100186.98
2018-03-17T18:16:43.125Z,100188.90
2018-03-17T18:19:09.312Z,100191.16
2018-03-17T18:21:35.487Z,100187.31
2018-03-17T18:24:01.703Z,100192.96
2018-03-17T18:26:27.911Z,100191.19
2018-03-17T18:28:54.575Z,100191.40
2018-03-17T18:31:20.861Z,100196.69
2018-03-17T18:33:47.047Z,100202.20
2018-03-17T18:36:14.992Z,100187.52
2018-03-17T18:38:43.450Z,100194.47
2018-03-17T18:41:09.671Z,100196.99
2018-03-17T18:43:36.903Z,100196.56
2018-03-17T18:46:03.276Z,100206.52
2018-03-17T18:48:29.464Z,100195.66
2018-03-17T18:50:56.676Z,100199.03
2018-03-17T18:53:23.017Z,100196.50
2018-03-17T18:55:49.273Z,100210.37
2018-03-17T18:58:15.562Z,100200.88
2018-03-17T19:00:42.581Z,100200.98
2018-03-17T19:03:08.831Z,100213.47
2018-03-17T19:05:36.309Z,100194.91
2018-03-17T19:08:02.571Z,100196.31
2018-03-17T19:10:29.568Z,100207.89
2018-03-17T19:12:55.765Z,100202.28
2018-03-17T19:15:22.673Z,100196.20
2018-03-17T19:17:48.819Z,100210.02
2018-03-17T19:20:15.053Z,100208.77
2018-03-17T19:22:41.208Z,100205.34
2018-03-17T19:25:07.497Z,100213.64
2018-03-17T19:27:33.759Z,100219.24
2018-03-17T19:29:59.990Z,100218.79
2018-03-17T19:32:26.228Z,100215.29
2018-03-17T19:34:52.415Z,100219.16
2018-03-17T19:37:19.014Z,100230.80
2018-03-17T19:39:45.271Z,100229.88
2018-03-17T19:42:11.459Z,100232.14
2018-03-17T19:44:37.682Z,100244.98
2018-03-17T19:47:03.911Z,100239.06
2018-03-17T19:49:30.118Z,100241.31
2018-03-17T19:51:56.361Z,100233.14
2018-03-17T19:54:23.087Z,100236.40
2018-03-17T19:56:49.285Z,100249.66
2018-03-17T19:59:15.481Z,100253.56
2018-03-17T20:01:42.248Z,100250.26
2018-03-17T20:04:19.400Z,100246.33
2018-03-17T20:06:46.284Z,100240.65
2018-03-17T20:09:13.171Z,100242.80
2018-03-17T20:11:39.421Z,100248.83
2018-03-17T20:14:05.642Z,100246.81
2018-03-17T20:16:31.912Z,100253.44
2018-03-17T20:18:58.190Z,100258.31
2018-03-17T20:21:24.484Z,100252.72
2018-03-17T20:23:50.708Z,100251.36
2018-03-17T20:26:17.091Z,100250.81
2018-03-17T20:28:43.334Z,100253.44
2018-03-17T20:31:10.108Z,100252.59
2018-03-17T20:33:36.329Z,100258.23
2018-03-17T20:36:03.218Z,100257.82
2018-03-17T20:38:29.460Z,100257.84
2018-03-17T20:40:55.671Z,100248.29
2018-03-17T20:43:22.309Z,100257.44
2018-03-17T20:45:49.185Z,100251.42
2018-03-17T20:48:15.328Z,100257.00
2018-03-17T20:50:41.503Z,100265.02
2018-03-17T20:53:07.704Z,100264.61
2018-03-17T20:55:33.889Z,100261.61
2018-03-17T20:58:00.173Z,100266.03
2018-03-17T21:00:26.384Z,100278.45
2018-03-17T21:02:52.660Z,100284.91
2018-03-17T21:05:18.919Z,100273.72
2018-03-17T21:07:45.123Z,100289.72
2018-03-17T21:10:11.385Z,100287.83
2018-03-17T21:12:37.623Z,100292.19
2018-03-17T21:15:03.855Z,100284.11
2018-03-17T21:17:30.071Z,100292.69
2018-03-17T21:19:56.295Z,100289.32
2018-03-17T21:22:22.533Z,100288.05
2018-03-17T21:24:48.721Z,100289.88
2018-03-17T21:27:14.947Z,100286.72
2018-03-17T21:29:41.134Z,100292.73
2018-03-17T21:32:07.345Z,100285.80
2018-03-17T21:34:33.528Z,100277.27
2018-03-17T21:36:59.652Z,100298.67
2018-03-17T21:39:25.836Z,100297.16
2018-03-17T21:41:52.116Z,100290.67
2018-03-17T21:44:18.287Z,100285.59
2018-03-17T21:46:44.442Z,100291.52
2018-03-17T21:49:10.664Z,100289.04
2018-03-17T21:51:36.886Z,100295.39
2018-03-17T21:54:03.046Z,100298.85
2018-03-17T21:56:29.432Z,100296.25
2018-03-17T21:58:55.661Z,100283.70
2018-03-17T22:01:21.862Z,100281.05
2018-03-17T22:03:48.101Z,100289.73
2018-03-17T22:06:14.352Z,100285.43
2018-03-17T22:08:40.613Z,100290.94
2018-03-17T22:11:06.857Z,100277.72
2018-03-17T22:13:32.983Z,100284.16
2018-03-17T22:15:59.125Z,100284.98
2018-03-17T22:18:25.342Z,100276.39
2018-03-17T22:20:51.593Z,100283.73
2018-03-17T22:23:17.819Z,100278.98
2018-03-17T22:25:43.971Z,100282.91
2018-03-17T22:28:10.231Z,100277.77
2018-03-17T22:30:36.432Z,100276.12
2018-03-17T22:33:02.649Z,100274.14
2018-03-17T22:35:28.757Z,100284.94
2018-03-17T22:37:54.942Z,100287.09
2018-03-17T22:40:21.145Z,100281.17
2018-03-17T22:42:47.346Z,100279.41
2018-03-17T22:45:13.607Z,100281.05
2018-03-17T22:47:39.802Z,100281.48
2018-03-17T22:50:05.981Z,100284.45
2018-03-17T22:52:32.202Z,100284.55
2018-03-17T22:54:58.416Z,100282.70
2018-03-17T22:57:24.654Z,100283.58
2018-03-17T22:59:50.852Z,100289.66
2018-03-17T23:02:17.076Z,100281.58
2018-03-17T23:04:43.190Z,100285.41
2018-03-17T23:07:09.418Z,100282.09
2018-03-17T23:09:35.607Z,100290.16
2018-03-17T23:12:01.882Z,100284.55
2018-03-17T23:14:28.041Z,100299.67
2018-03-17T23:16:54.229Z,100301.84
2018-03-17T23:19:20.391Z,100301.74
2018-03-17T23:21:46.623Z,100299.59
2018-03-17T23:24:12.853Z,100306.73
2018-03-17T23:26:39.040Z,100305.08
2018-03-17T23:29:05.300Z,100306.55
2018-03-17T23:31:31.592Z,100308.27
2018-03-17T23:33:57.851Z,100309.72
2018-03-17T23:36:24.062Z,100308.53
2018-03-17T23:38:50.254Z,100309.16
2018-03-17T23:41:16.524Z,100314.77
2018-03-17T23:43:42.811Z,100315.52
2018-03-17T23:46:09.112Z,100306.20
2018-03-17T23:48:35.343Z,100307.58
2018-03-17T23:51:01.576Z,100324.06
2018-03-17T23:53:27.788Z,100328.69
2018-03-17T23:55:54.027Z,100323.44
2018-03-17T23:58:20.295Z,100325.47
